Terminal Aerodrome Forecast
Issued by NWS

Home | Current Version | Previous Version | Text Only | Print | Product List | Glossary On
Versions: 1 2 3 4 5 6 7 8 9 10 11 12 13 14
000
FTUS44 KTSA 132000 AAA
TAFXNA
TAF AMD
KXNA 132020Z 1320/1418 19011KT P6SM FEW150
     FM140100 19004KT P6SM SCT100 PROB30 1406/1412 6SM -TSRA BR
      BKN050CB
     FM141500 35005KT P6SM SKC=

USA.gov is the U.S. government's official web portal to all federal, state and local government web resources and services.